createdAt,value
2018-11-10T00:01:03.929Z,129.10
2018-11-10T00:03:39.225Z,122.15
2018-11-10T00:06:14.923Z,125.00
2018-11-10T00:08:50.462Z,114.20
2018-11-10T00:11:26.108Z,134.75
2018-11-10T00:14:01.344Z,115.32
2018-11-10T00:16:36.972Z,116.77
2018-11-10T00:19:12.283Z,117.87
2018-11-10T00:21:47.873Z,120.82
2018-11-10T00:24:23.107Z,121.80
2018-11-10T00:27:05.629Z,113.28
2018-11-10T00:29:40.923Z,123.35
2018-11-10T00:32:16.632Z,115.10
2018-11-10T00:34:52.326Z,120.15
2018-11-10T00:37:27.760Z,130.05
2018-11-10T00:40:03.415Z,123.87
2018-11-10T00:42:38.824Z,135.80
2018-11-10T00:45:14.049Z,123.72
2018-11-10T00:47:49.618Z,123.60
2018-11-10T00:50:24.989Z,122.45
2018-11-10T00:53:00.456Z,124.60
2018-11-10T00:55:35.769Z,128.95
2018-11-10T00:58:11.496Z,122.47
2018-11-10T01:00:46.804Z,131.50
2018-11-10T01:03:22.303Z,126.97
2018-11-10T01:05:57.770Z,119.13
2018-11-10T01:08:33.377Z,131.97
2018-11-10T01:11:08.963Z,136.32
2018-11-10T01:13:44.585Z,116.97
2018-11-10T01:16:20.121Z,127.42
2018-11-10T01:18:55.786Z,145.80
2018-11-10T01:21:31.243Z,133.30
2018-11-10T01:24:06.765Z,124.47
2018-11-10T01:26:42.128Z,122.92
2018-11-10T01:29:17.753Z,125.72
2018-11-10T01:31:53.236Z,127.50
2018-11-10T01:34:28.698Z,144.65
2018-11-10T01:37:04.069Z,133.55
2018-11-10T01:39:39.462Z,117.75
2018-11-10T01:42:14.760Z,141.45
2018-11-10T01:44:50.335Z,143.35
2018-11-10T01:47:25.809Z,135.45
2018-11-10T01:50:01.352Z,131.25
2018-11-10T01:52:36.681Z,139.47
2018-11-10T01:55:12.511Z,139.22
2018-11-10T01:57:47.816Z,129.57
2018-11-10T02:00:23.361Z,130.18
2018-11-10T02:02:58.584Z,137.30
2018-11-10T02:05:33.994Z,117.10
2018-11-10T02:08:09.371Z,127.32
2018-11-10T02:10:45.362Z,134.55
2018-11-10T02:13:20.832Z,113.97
2018-11-10T02:15:56.392Z,114.05
2018-11-10T02:18:31.661Z,123.02
2018-11-10T02:21:07.495Z,112.85
2018-11-10T02:23:42.993Z,104.53
2018-11-10T02:26:18.685Z,107.07
2018-11-10T02:28:54.161Z,107.70
2018-11-10T02:31:29.817Z,111.22
2018-11-10T02:34:05.757Z,122.40
2018-11-10T02:36:41.046Z,117.17
2018-11-10T02:39:16.536Z,104.47
2018-11-10T02:41:51.973Z,96.15
2018-11-10T02:44:27.212Z,110.68
2018-11-10T02:47:03.176Z,109.15
2018-11-10T02:49:38.546Z,106.40
2018-11-10T02:52:13.885Z,103.90
2018-11-10T02:54:49.192Z,97.30
2018-11-10T02:57:24.948Z,100.80
2018-11-10T03:00:00.134Z,92.97
2018-11-10T03:02:35.763Z,99.95
2018-11-10T03:05:11.682Z,95.70
2018-11-10T03:07:47.340Z,101.55
2018-11-10T03:10:22.979Z,105.65
2018-11-10T03:12:58.644Z,99.37
2018-11-10T03:15:34.107Z,98.33
2018-11-10T03:18:09.584Z,100.45
2018-11-10T03:20:45.065Z,99.35
2018-11-10T03:23:20.529Z,93.50
2018-11-10T03:25:55.934Z,89.22
2018-11-10T03:28:31.616Z,94.32
2018-11-10T03:31:07.341Z,92.22
2018-11-10T03:33:42.742Z,96.02
2018-11-10T03:36:18.226Z,91.60
2018-11-10T03:38:53.814Z,86.80
2018-11-10T03:41:29.273Z,86.72
2018-11-10T03:44:05.001Z,84.32
2018-11-10T03:46:40.512Z,80.45
2018-11-10T03:49:16.002Z,89.72
2018-11-10T03:51:51.371Z,82.53
2018-11-10T03:54:27.107Z,78.45
2018-11-10T03:57:02.945Z,80.45
2018-11-10T03:59:38.626Z,95.22
2018-11-10T04:02:14.072Z,89.20
2018-11-10T04:04:49.698Z,83.87
2018-11-10T04:07:25.008Z,82.80
2018-11-10T04:10:00.795Z,82.67
2018-11-10T04:12:36.413Z,75.60
2018-11-10T04:15:12.091Z,75.85
2018-11-10T04:17:47.405Z,79.35
2018-11-10T04:20:22.878Z,75.22
2018-11-10T04:22:58.425Z,78.15
2018-11-10T04:25:34.077Z,68.15
2018-11-10T04:28:09.281Z,70.78
2018-11-10T04:30:44.796Z,73.65
2018-11-10T04:33:20.127Z,73.02
2018-11-10T04:35:55.649Z,64.47
2018-11-10T04:38:31.088Z,67.10
2018-11-10T04:41:07.252Z,72.97
2018-11-10T04:43:42.677Z,75.60
2018-11-10T04:46:18.245Z,67.30
2018-11-10T04:48:53.685Z,67.78
2018-11-10T04:51:29.062Z,67.80
2018-11-10T04:54:04.892Z,66.90
2018-11-10T04:56:40.397Z,62.90
2018-11-10T04:59:16.008Z,73.05
2018-11-10T05:01:51.637Z,73.17
2018-11-10T05:04:27.061Z,65.97
2018-11-10T05:07:02.630Z,69.55
2018-11-10T05:09:38.439Z,66.72
2018-11-10T05:12:14.236Z,64.15
2018-11-10T05:14:49.732Z,65.47
2018-11-10T05:17:25.341Z,66.77
2018-11-10T05:20:00.540Z,58.30
2018-11-10T05:22:36.021Z,58.80
2018-11-10T05:25:11.740Z,65.78
2018-11-10T05:27:47.312Z,56.90
2018-11-10T05:30:22.789Z,65.75
2018-11-10T05:32:58.394Z,62.65
2018-11-10T05:35:33.605Z,65.92
2018-11-10T05:38:09.105Z,65.95
2018-11-10T05:40:44.558Z,59.67
2018-11-10T05:43:20.242Z,65.72
2018-11-10T05:45:55.653Z,60.40
2018-11-10T05:48:31.399Z,63.23
2018-11-10T05:51:06.853Z,60.38
2018-11-10T05:53:42.221Z,65.97
2018-11-10T05:56:17.696Z,61.60
2018-11-10T05:58:53.053Z,60.78
2018-11-10T06:01:28.395Z,60.43
2018-11-10T06:04:04.060Z,62.25
2018-11-10T06:06:39.737Z,52.73
2018-11-10T06:09:15.426Z,60.67
2018-11-10T06:11:50.861Z,60.75
2018-11-10T06:14:26.267Z,61.08
2018-11-10T06:17:01.713Z,66.30
2018-11-10T06:19:37.197Z,58.35
2018-11-10T06:22:12.700Z,61.30
2018-11-10T06:24:48.241Z,58.52
2018-11-10T06:27:23.425Z,70.20
2018-11-10T06:29:58.898Z,61.60
2018-11-10T06:32:34.436Z,66.70
2018-11-10T06:35:10.658Z,68.28
2018-11-10T06:37:46.046Z,60.30
2018-11-10T06:40:21.460Z,60.33
2018-11-10T06:42:56.769Z,64.37
2018-11-10T06:45:32.234Z,55.12
2018-11-10T06:48:07.512Z,66.50
2018-11-10T06:50:43.203Z,64.47
2018-11-10T06:53:25.348Z,62.55
2018-11-10T06:56:01.157Z,65.97
2018-11-10T06:58:36.512Z,63.40
2018-11-10T07:01:12.076Z,66.05
2018-11-10T07:03:47.310Z,57.73
2018-11-10T07:06:22.809Z,67.27
2018-11-10T07:08:58.138Z,58.83
2018-11-10T07:11:33.832Z,63.95
2018-11-10T07:14:09.158Z,61.42
2018-11-10T07:16:44.710Z,54.80
2018-11-10T07:19:20.418Z,68.83
2018-11-10T07:21:56.112Z,63.85
2018-11-10T07:24:31.487Z,62.48
2018-11-10T07:27:07.028Z,62.93
2018-11-10T07:29:42.249Z,54.60
2018-11-10T07:32:17.714Z,55.45
2018-11-10T07:34:53.041Z,55.15
2018-11-10T07:37:28.544Z,55.00
2018-11-10T07:40:04.016Z,54.10
2018-11-10T07:42:39.497Z,54.20
2018-11-10T07:45:15.943Z,51.88
2018-11-10T07:47:51.396Z,47.93
2018-11-10T07:50:26.812Z,59.45
2018-11-10T07:53:02.169Z,49.20
2018-11-10T07:55:37.492Z,40.33
2018-11-10T07:58:13.042Z,49.42
2018-11-10T08:00:51.215Z,43.55
2018-11-10T08:03:26.801Z,50.33
2018-11-10T08:06:02.497Z,47.35
2018-11-10T08:08:38.098Z,44.70
2018-11-10T08:11:13.669Z,48.75
2018-11-10T08:13:49.050Z,43.23
2018-11-10T08:16:24.552Z,41.92
2018-11-10T08:18:59.973Z,42.67
2018-11-10T08:21:35.525Z,45.00
2018-11-10T08:24:10.804Z,43.40
2018-11-10T08:26:46.149Z,43.95
2018-11-10T08:29:21.689Z,42.38
2018-11-10T08:31:57.036Z,41.08
2018-11-10T08:34:32.632Z,40.55
2018-11-10T08:37:07.814Z,42.95
2018-11-10T08:39:43.591Z,35.95
2018-11-10T08:42:18.914Z,35.60
2018-11-10T08:44:54.324Z,37.42
2018-11-10T08:47:29.563Z,35.75
2018-11-10T08:50:06.225Z,36.48
2018-11-10T08:52:42.333Z,45.95
2018-11-10T08:55:17.945Z,44.93
2018-11-10T08:57:53.345Z,38.33
2018-11-10T09:00:28.693Z,40.05
2018-11-10T09:03:04.205Z,34.48
2018-11-10T09:05:39.784Z,39.35
2018-11-10T09:08:15.311Z,39.15
2018-11-10T09:10:51.051Z,40.08
2018-11-10T09:13:26.334Z,34.38
2018-11-10T09:16:01.785Z,42.60
2018-11-10T09:18:37.053Z,34.78
2018-11-10T09:21:12.734Z,33.92
2018-11-10T09:23:47.897Z,31.25
2018-11-10T09:26:23.600Z,42.75
2018-11-10T09:28:58.925Z,37.58
2018-11-10T09:31:34.309Z,38.45
2018-11-10T09:34:09.492Z,36.77
2018-11-10T09:36:44.954Z,31.75
2018-11-10T09:39:20.373Z,36.65
2018-11-10T09:41:56.108Z,33.55
2018-11-10T09:44:31.395Z,36.38
2018-11-10T09:47:06.948Z,34.30
2018-11-10T09:49:42.358Z,34.08
2018-11-10T09:52:18.084Z,30.15
2018-11-10T09:54:53.549Z,28.87
2018-11-10T09:57:29.292Z,33.45
2018-11-10T10:00:07.021Z,31.65
2018-11-10T10:02:42.969Z,34.30
2018-11-10T10:05:18.117Z,31.97
2018-11-10T10:07:53.624Z,28.45
2018-11-10T10:10:29.481Z,31.90
2018-11-10T10:13:05.136Z,26.12
2018-11-10T10:15:40.532Z,28.32
2018-11-10T10:18:16.022Z,28.02
2018-11-10T10:20:51.260Z,25.62
2018-11-10T10:23:26.701Z,25.12
2018-11-10T10:26:02.193Z,23.20
2018-11-10T10:28:38.031Z,21.82
2018-11-10T10:31:13.345Z,20.12
2018-11-10T10:33:48.706Z,21.52
2018-11-10T10:36:24.236Z,21.52
2018-11-10T10:38:59.792Z,20.45
2018-11-10T10:41:35.206Z,20.12
2018-11-10T10:44:11.173Z,17.23
2018-11-10T10:46:46.657Z,17.20
2018-11-10T10:49:22.125Z,17.90
2018-11-10T10:51:57.472Z,19.52
2018-11-10T10:54:33.076Z,14.65
2018-11-10T10:57:08.595Z,18.77
2018-11-10T10:59:44.171Z,17.25
2018-11-10T11:02:24.680Z,16.27
2018-11-10T11:05:04.389Z,17.92
2018-11-10T11:07:39.801Z,17.25
2018-11-10T11:10:15.370Z,12.40
2018-11-10T11:12:50.931Z,12.20
2018-11-10T11:15:26.900Z,12.98
2018-11-10T11:18:02.260Z,13.43
2018-11-10T11:20:37.780Z,13.55
2018-11-10T11:23:13.300Z,11.35
2018-11-10T11:25:49.216Z,11.50
2018-11-10T11:28:25.313Z,12.03
2018-11-10T11:31:00.854Z,13.22
2018-11-10T11:33:36.257Z,12.37
2018-11-10T11:36:11.669Z,10.80
2018-11-10T11:38:46.861Z,12.30
2018-11-10T11:41:22.531Z,11.35
2018-11-10T11:43:57.866Z,12.43
2018-11-10T11:46:33.336Z,12.78
2018-11-10T11:49:08.489Z,11.48
2018-11-10T11:51:44.028Z,10.30
2018-11-10T11:54:19.387Z,13.22
2018-11-10T11:56:54.846Z,12.43
2018-11-10T11:59:30.085Z,12.28
2018-11-10T12:02:06.068Z,11.00
2018-11-10T12:04:41.455Z,11.95
2018-11-10T12:07:16.954Z,10.55
2018-11-10T12:09:52.552Z,20.62
2018-11-10T12:12:28.105Z,10.05
2018-11-10T12:15:03.476Z,9.48
2018-11-10T12:17:38.901Z,15.20
2018-11-10T12:20:15.348Z,10.03
2018-11-10T12:22:50.818Z,10.45
2018-11-10T12:25:26.229Z,10.90
2018-11-10T12:28:01.753Z,12.10
2018-11-10T12:30:37.080Z,11.12
2018-11-10T12:33:12.798Z,12.23
2018-11-10T12:35:48.193Z,16.20
2018-11-10T12:38:23.886Z,14.47
2018-11-10T12:40:59.286Z,17.40
2018-11-10T12:43:34.780Z,12.35
2018-11-10T12:46:10.120Z,15.15
2018-11-10T12:48:45.576Z,12.00
2018-11-10T12:51:21.040Z,15.53
2018-11-10T12:54:03.322Z,15.65
2018-11-10T12:56:38.822Z,10.60
2018-11-10T12:59:14.514Z,12.45
2018-11-10T13:01:50.035Z,13.58
2018-11-10T13:04:25.486Z,12.80
2018-11-10T13:07:01.266Z,14.15
2018-11-10T13:09:36.917Z,13.13
2018-11-10T13:12:12.331Z,10.15
2018-11-10T13:14:47.689Z,17.45
2018-11-10T13:17:23.112Z,11.03
2018-11-10T13:19:58.555Z,19.60
2018-11-10T13:22:33.767Z,15.30
2018-11-10T13:25:10.302Z,16.25
2018-11-10T13:27:45.628Z,13.62
2018-11-10T13:30:21.009Z,14.55
2018-11-10T13:32:56.373Z,16.55
2018-11-10T13:35:31.881Z,14.15
2018-11-10T13:38:07.136Z,14.53
2018-11-10T13:40:42.661Z,14.58
2018-11-10T13:43:18.121Z,14.63
2018-11-10T13:45:53.553Z,21.10
2018-11-10T13:48:29.045Z,20.20
2018-11-10T13:51:04.720Z,13.72
2018-11-10T13:53:40.070Z,13.93
2018-11-10T13:56:15.737Z,18.40
2018-11-10T13:58:51.472Z,19.37
2018-11-10T14:01:27.041Z,17.12
2018-11-10T14:04:02.328Z,14.87
2018-11-10T14:06:37.837Z,15.13
2018-11-10T14:09:13.351Z,14.83
2018-11-10T14:11:49.333Z,17.02
2018-11-10T14:14:24.865Z,15.30
2018-11-10T14:17:00.460Z,12.95
2018-11-10T14:19:35.860Z,16.95
2018-11-10T14:22:11.430Z,20.15
2018-11-10T14:24:46.808Z,14.93
2018-11-10T14:27:22.417Z,26.00
2018-11-10T14:29:57.656Z,20.08
2018-11-10T14:32:33.104Z,16.52
2018-11-10T14:35:09.345Z,16.45
2018-11-10T14:37:44.925Z,19.82
2018-11-10T14:40:20.419Z,18.10
2018-11-10T14:42:55.978Z,22.60
2018-11-10T14:45:31.299Z,22.00
2018-11-10T14:48:06.756Z,20.82
2018-11-10T14:50:42.070Z,18.65
2018-11-10T14:53:17.750Z,15.10
2018-11-10T14:55:53.113Z,20.32
2018-11-10T14:58:28.533Z,17.87
2018-11-10T15:01:03.885Z,16.48
2018-11-10T15:03:39.432Z,25.95
2018-11-10T15:06:14.695Z,17.90
2018-11-10T15:08:50.318Z,17.30
2018-11-10T15:11:25.983Z,17.02
2018-11-10T15:14:01.561Z,27.60
2018-11-10T15:16:37.089Z,22.48
2018-11-10T15:19:12.399Z,22.10
2018-11-10T15:21:47.969Z,20.35
2018-11-10T15:24:23.458Z,20.32
2018-11-10T15:26:58.940Z,20.52
2018-11-10T15:29:34.417Z,20.05
2018-11-10T15:32:09.705Z,19.57
2018-11-10T15:34:45.177Z,15.50
2018-11-10T15:37:20.663Z,25.17
2018-11-10T15:39:56.097Z,20.05
2018-11-10T15:42:31.459Z,21.40
2018-11-10T15:45:08.224Z,26.27
2018-11-10T15:47:43.961Z,20.80
2018-11-10T15:50:19.997Z,26.15
2018-11-10T15:52:55.293Z,26.57
2018-11-10T15:55:30.664Z,28.80
2018-11-10T15:58:06.349Z,23.25
2018-11-10T16:00:41.657Z,22.17
2018-11-10T16:03:17.083Z,29.63
2018-11-10T16:05:52.813Z,29.15
2018-11-10T16:08:28.185Z,27.95
2018-11-10T16:11:03.798Z,30.85
2018-11-10T16:13:39.132Z,29.98
2018-11-10T16:16:14.541Z,29.98
2018-11-10T16:18:49.869Z,30.65
2018-11-10T16:21:25.350Z,27.50
2018-11-10T16:24:00.671Z,31.95
2018-11-10T16:26:36.098Z,31.37
2018-11-10T16:29:11.422Z,30.48
2018-11-10T16:31:46.862Z,37.28
2018-11-10T16:34:22.395Z,30.20
2018-11-10T16:36:57.962Z,30.00
2018-11-10T16:39:33.362Z,28.15
2018-11-10T16:42:09.213Z,31.75
2018-11-10T16:44:44.766Z,29.92
2018-11-10T16:47:20.222Z,33.15
2018-11-10T16:49:55.536Z,31.12
2018-11-10T16:52:31.211Z,35.60
2018-11-10T16:55:07.429Z,32.23
2018-11-10T16:57:43.041Z,36.40
2018-11-10T17:00:19.713Z,25.82
2018-11-10T17:02:55.425Z,37.35
2018-11-10T17:05:30.808Z,33.20
2018-11-10T17:08:06.476Z,30.80
2018-11-10T17:10:41.831Z,27.35
2018-11-10T17:13:17.274Z,38.55
2018-11-10T17:15:52.700Z,32.48
2018-11-10T17:18:28.378Z,34.00
2018-11-10T17:21:03.759Z,33.67
2018-11-10T17:23:39.199Z,32.25
2018-11-10T17:26:14.673Z,36.93
2018-11-10T17:28:50.158Z,32.30
2018-11-10T17:31:25.674Z,43.73
2018-11-10T17:34:01.390Z,41.75
2018-11-10T17:36:36.800Z,37.15
2018-11-10T17:39:12.437Z,33.35
2018-11-10T17:41:47.922Z,35.55
2018-11-10T17:44:23.621Z,39.67
2018-11-10T17:46:58.881Z,43.40
2018-11-10T17:49:35.005Z,35.13
2018-11-10T17:52:10.388Z,35.20
2018-11-10T17:54:45.929Z,54.73
2018-11-10T17:57:21.150Z,43.85
2018-11-10T17:59:56.821Z,39.05
2018-11-10T18:02:32.504Z,47.40
2018-11-10T18:05:10.079Z,35.43
2018-11-10T18:07:45.676Z,43.87
2018-11-10T18:10:21.380Z,47.45
2018-11-10T18:12:56.743Z,40.95
2018-11-10T18:15:32.549Z,40.10
2018-11-10T18:18:07.953Z,42.05
2018-11-10T18:20:43.749Z,41.68
2018-11-10T18:23:19.012Z,42.05
2018-11-10T18:25:54.548Z,47.88
2018-11-10T18:28:29.960Z,40.45
2018-11-10T18:31:05.541Z,42.83
2018-11-10T18:33:41.366Z,41.50
2018-11-10T18:36:16.904Z,42.43
2018-11-10T18:38:52.428Z,46.28
2018-11-10T18:41:27.833Z,40.60
2018-11-10T18:44:09.741Z,38.65
2018-11-10T18:46:45.592Z,44.65
2018-11-10T18:49:20.901Z,38.63
2018-11-10T18:51:56.500Z,38.38
2018-11-10T18:54:32.030Z,42.65
2018-11-10T18:57:07.641Z,39.10
2018-11-10T18:59:42.868Z,40.63
2018-11-10T19:02:18.455Z,35.85
2018-11-10T19:04:54.787Z,40.73
2018-11-10T19:07:30.230Z,38.33
2018-11-10T19:10:07.444Z,43.45
2018-11-10T19:12:43.249Z,40.12
2018-11-10T19:15:20.061Z,41.15
2018-11-10T19:17:55.573Z,38.70
2018-11-10T19:20:31.085Z,39.53
2018-11-10T19:23:06.776Z,40.38
2018-11-10T19:25:42.190Z,40.43
2018-11-10T19:28:17.693Z,52.00
2018-11-10T19:30:53.094Z,43.30
2018-11-10T19:33:28.686Z,43.30
2018-11-10T19:36:04.185Z,31.73
2018-11-10T19:38:39.880Z,36.30
2018-11-10T19:41:15.247Z,44.93
2018-11-10T19:43:50.895Z,36.80
2018-11-10T19:46:26.249Z,44.08
2018-11-10T19:49:02.023Z,34.38
2018-11-10T19:51:37.537Z,32.38
2018-11-10T19:54:13.031Z,30.48
2018-11-10T19:56:48.453Z,30.45
2018-11-10T19:59:24.008Z,27.98
2018-11-10T20:01:59.501Z,26.68
2018-11-10T20:04:35.173Z,26.50
2018-11-10T20:07:10.621Z,22.07
2018-11-10T20:09:46.189Z,30.05
2018-11-10T20:12:21.736Z,32.88
2018-11-10T20:14:57.400Z,33.48
2018-11-10T20:17:32.957Z,24.12
2018-11-10T20:20:09.949Z,25.27
2018-11-10T20:22:45.434Z,23.55
2018-11-10T20:25:20.842Z,22.13
2018-11-10T20:27:57.160Z,28.55
2018-11-10T20:30:32.787Z,27.22
2018-11-10T20:33:08.092Z,22.55
2018-11-10T20:35:43.660Z,23.92
2018-11-10T20:38:19.064Z,23.00
2018-11-10T20:40:54.581Z,25.48
2018-11-10T20:43:30.118Z,20.00
2018-11-10T20:46:06.429Z,23.77
2018-11-10T20:48:41.865Z,19.00
2018-11-10T20:51:17.536Z,23.75
2018-11-10T20:53:52.870Z,21.57
2018-11-10T20:56:28.456Z,21.60
2018-11-10T20:59:03.959Z,18.55
2018-11-10T21:01:39.581Z,35.25
2018-11-10T21:04:15.398Z,22.45
2018-11-10T21:06:51.103Z,19.70
2018-11-10T21:09:26.354Z,16.65
2018-11-10T21:12:02.301Z,18.92
2018-11-10T21:14:37.857Z,17.52
2018-11-10T21:17:13.336Z,28.30
2018-11-10T21:19:49.246Z,18.25
2018-11-10T21:22:24.839Z,19.42
2018-11-10T21:25:00.470Z,17.98
2018-11-10T21:27:35.895Z,20.52
2018-11-10T21:30:13.000Z,17.60
2018-11-10T21:32:48.839Z,16.85
2018-11-10T21:35:24.260Z,18.23
2018-11-10T21:37:59.625Z,18.30
2018-11-10T21:40:35.111Z,13.65
2018-11-10T21:43:10.565Z,16.90
2018-11-10T21:45:46.024Z,14.30
2018-11-10T21:48:21.689Z,22.17
2018-11-10T21:50:56.889Z,16.75
2018-11-10T21:53:32.521Z,18.15
2018-11-10T21:56:07.708Z,23.57
2018-11-10T21:58:43.131Z,19.95
2018-11-10T22:01:18.503Z,12.98
2018-11-10T22:03:54.164Z,17.50
2018-11-10T22:06:29.380Z,13.88
2018-11-10T22:09:07.078Z,15.15
2018-11-10T22:11:43.961Z,18.90
2018-11-10T22:14:19.372Z,15.15
2018-11-10T22:16:54.632Z,19.80
2018-11-10T22:19:30.198Z,20.55
2018-11-10T22:22:05.885Z,15.20
2018-11-10T22:24:41.452Z,16.90
2018-11-10T22:27:17.076Z,20.70
2018-11-10T22:29:52.578Z,21.68
2018-11-10T22:32:27.958Z,19.20
2018-11-10T22:35:03.657Z,18.90
2018-11-10T22:37:39.290Z,17.70
2018-11-10T22:40:16.041Z,15.50
2018-11-10T22:42:51.600Z,16.60
2018-11-10T22:45:27.238Z,18.90
2018-11-10T22:48:02.708Z,17.02
2018-11-10T22:50:38.313Z,19.50
2018-11-10T22:53:13.858Z,15.53
2018-11-10T22:55:49.281Z,20.30
2018-11-10T22:58:24.580Z,17.62
2018-11-10T23:01:07.267Z,16.65
2018-11-10T23:03:42.713Z,18.00
2018-11-10T23:06:18.322Z,19.37
2018-11-10T23:08:53.620Z,13.05
2018-11-10T23:11:29.156Z,14.35
2018-11-10T23:14:04.685Z,19.07
2018-11-10T23:16:40.121Z,18.75
2018-11-10T23:19:15.551Z,24.10
2018-11-10T23:21:51.334Z,16.37
2018-11-10T23:24:26.681Z,17.35
2018-11-10T23:27:02.443Z,17.75
2018-11-10T23:29:37.773Z,15.43
2018-11-10T23:32:13.426Z,14.83
2018-11-10T23:34:48.783Z,18.30
2018-11-10T23:37:24.276Z,16.48
2018-11-10T23:39:59.534Z,19.35
2018-11-10T23:42:35.153Z,19.90
2018-11-10T23:45:11.032Z,17.17
2018-11-10T23:47:46.589Z,19.10
2018-11-10T23:50:21.957Z,22.27
2018-11-10T23:52:57.385Z,16.23
2018-11-10T23:55:32.821Z,16.67
2018-11-10T23:58:08.277Z,15.98
